Checotah, Oklahoma
Current Conditions -  °F | °C
As of 7:53 AM on Tuesday 27 Jan 2015 (Local Time) from KMKO Reporting Station
Clear Clear  
Wind Chill: 31°   Ceiling: Unl
Heat Index: 35°   Visibility: 10mi
Dew Point: 32°   Wind: 5mph
Humidity: 89%   Direction: 40°NE
Pressure: 30.16"   Gusts: NA
Location:  35.47°N, 95.52°W
Report Text: KMKO 271353Z AUTO 04004KT 10SM CLR 02/00 A3016 RMK AO2 SLP214 T00170000
Loading
Personal Weather Stations






























Interactive Weather Map New forecast layout! Learn more

10-Day Weather Forecast

Advertisements
Track Severe Weather on mobile